Larestan International Airport

Airport
ICAO code: 
OISL
IATA Code: 
LRR
Summary
ICAO Region: 
MID
Territory: 
Location: 
Lar, Fars Province
Serving: 
Lar
Elevation: 
2625 ft
Coordinates: 
Aerial View: 
27° 40' 10.146" N, 54° 22' 57.758" E
Metar
Observation
OISL 030800Z 17004KT 8000 NSC 41/18 Q0997 A2946 NOSIG
Station
Lar
Date/Time
2022-07-03 08:00:00
Wind direction
170°
Wind speed
04 kts
Lowest cloud amount
nil significant cloud
Temperature
41°C
Dew point
18°C
Humidity
26%
QNH
997 hPa
Weather condition
n/a

Airport serving the city of Las, Iran.

Climatology

Warm Desert climate (Köppen climate classification BWh).

Runways

Designator Length Width Surface Rops
9/27 3150 45 ASP No/No
Airport map: 
Aerial View: 

SKYbrary Partners:

Safety knowledge contributed by: